sensor_id;sensor_type;location;lat;lon;timestamp;P1;durP1;ratioP1;P2;durP2;ratioP2
36691;SDS011;22678;52.052;4.242;2022-12-10T00:02:06;70.13;;;22.50;;
36691;SDS011;22678;52.052;4.242;2022-12-10T00:04:31;62.67;;;22.70;;
36691;SDS011;22678;52.052;4.242;2022-12-10T00:06:57;65.00;;;22.93;;
36691;SDS011;22678;52.052;4.242;2022-12-10T00:09:22;73.60;;;25.33;;
36691;SDS011;22678;52.052;4.242;2022-12-10T00:11:47;56.60;;;23.73;;
36691;SDS011;22678;52.052;4.242;2022-12-10T00:14:13;59.43;;;24.43;;
36691;SDS011;22678;52.052;4.242;2022-12-10T00:16:39;64.33;;;24.10;;
36691;SDS011;22678;52.052;4.242;2022-12-10T00:19:04;64.93;;;25.67;;
36691;SDS011;22678;52.052;4.242;2022-12-10T00:21:31;65.63;;;25.70;;
36691;SDS011;22678;52.052;4.242;2022-12-10T00:23:58;61.90;;;24.07;;
36691;SDS011;22678;52.052;4.242;2022-12-10T00:26:25;67.70;;;26.67;;
36691;SDS011;22678;52.052;4.242;2022-12-10T00:28:56;64.33;;;25.33;;
36691;SDS011;22678;52.052;4.242;2022-12-10T00:31:23;72.00;;;24.67;;
36691;SDS011;22678;52.052;4.242;2022-12-10T00:33:54;60.77;;;25.17;;
36691;SDS011;22678;52.052;4.242;2022-12-10T00:36:23;64.17;;;23.23;;
36691;SDS011;22678;52.052;4.242;2022-12-10T00:38:52;68.63;;;24.38;;
36691;SDS011;22678;52.052;4.242;2022-12-10T00:41:18;75.30;;;25.60;;
36691;SDS011;22678;52.052;4.242;2022-12-10T00:43:44;74.47;;;26.23;;
36691;SDS011;22678;52.052;4.242;2022-12-10T00:46:10;57.90;;;22.93;;
36691;SDS011;22678;52.052;4.242;2022-12-10T00:48:36;72.80;;;27.00;;
36691;SDS011;22678;52.052;4.242;2022-12-10T00:51:03;69.80;;;23.37;;
36691;SDS011;22678;52.052;4.242;2022-12-10T00:53:34;50.10;;;20.20;;
36691;SDS011;22678;52.052;4.242;2022-12-10T00:56:02;79.83;;;24.70;;
36691;SDS011;22678;52.052;4.242;2022-12-10T00:58:29;83.77;;;28.80;;
36691;SDS011;22678;52.052;4.242;2022-12-10T01:01:09;59.57;;;24.73;;
36691;SDS011;22678;52.052;4.242;2022-12-10T01:03:36;81.90;;;28.23;;
36691;SDS011;22678;52.052;4.242;2022-12-10T01:06:09;73.93;;;26.27;;
36691;SDS011;22678;52.052;4.242;2022-12-10T01:08:38;82.30;;;27.27;;
36691;SDS011;22678;52.052;4.242;2022-12-10T01:11:03;87.63;;;29.63;;
36691;SDS011;22678;52.052;4.242;2022-12-10T01:13:29;69.63;;;27.50;;
36691;SDS011;22678;52.052;4.242;2022-12-10T01:15:54;77.03;;;29.07;;
36691;SDS011;22678;52.052;4.242;2022-12-10T01:18:20;79.80;;;27.67;;
36691;SDS011;22678;52.052;4.242;2022-12-10T01:20:45;70.63;;;27.43;;
36691;SDS011;22678;52.052;4.242;2022-12-10T01:23:10;81.70;;;26.17;;
36691;SDS011;22678;52.052;4.242;2022-12-10T01:25:35;67.10;;;25.53;;
36691;SDS011;22678;52.052;4.242;2022-12-10T01:28:01;75.40;;;30.97;;
36691;SDS011;22678;52.052;4.242;2022-12-10T01:30:26;73.70;;;27.30;;
36691;SDS011;22678;52.052;4.242;2022-12-10T01:32:51;84.87;;;27.67;;
36691;SDS011;22678;52.052;4.242;2022-12-10T01:35:16;71.40;;;28.30;;
36691;SDS011;22678;52.052;4.242;2022-12-10T01:37:42;80.90;;;26.47;;
36691;SDS011;22678;52.052;4.242;2022-12-10T01:40:07;71.80;;;28.40;;
36691;SDS011;22678;52.052;4.242;2022-12-10T01:42:33;75.87;;;27.00;;
36691;SDS011;22678;52.052;4.242;2022-12-10T01:45:00;77.43;;;24.37;;
36691;SDS011;22678;52.052;4.242;2022-12-10T01:47:29;78.60;;;25.70;;
36691;SDS011;22678;52.052;4.242;2022-12-10T01:49:54;82.57;;;28.20;;
36691;SDS011;22678;52.052;4.242;2022-12-10T01:52:22;64.53;;;23.67;;
36691;SDS011;22678;52.052;4.242;2022-12-10T01:54:47;73.90;;;25.93;;
36691;SDS011;22678;52.052;4.242;2022-12-10T01:57:14;80.43;;;28.33;;
36691;SDS011;22678;52.052;4.242;2022-12-10T01:59:43;69.47;;;26.63;;
36691;SDS011;22678;52.052;4.242;2022-12-10T02:02:22;73.57;;;26.00;;
36691;SDS011;22678;52.052;4.242;2022-12-10T02:13:06;59.73;;;22.13;;
36691;SDS011;22678;52.052;4.242;2022-12-10T02:15:34;70.53;;;24.73;;
36691;SDS011;22678;52.052;4.242;2022-12-10T02:18:11;70.53;;;24.37;;
36691;SDS011;22678;52.052;4.242;2022-12-10T02:20:45;72.30;;;24.07;;
36691;SDS011;22678;52.052;4.242;2022-12-10T02:23:22;73.80;;;24.87;;
36691;SDS011;22678;52.052;4.242;2022-12-10T02:26:06;79.23;;;25.60;;
36691;SDS011;22678;52.052;4.242;2022-12-10T02:31:42;75.03;;;25.08;;
36691;SDS011;22678;52.052;4.242;2022-12-10T02:34:11;58.83;;;23.53;;
36691;SDS011;22678;52.052;4.242;2022-12-10T02:36:40;77.30;;;25.40;;
36691;SDS011;22678;52.052;4.242;2022-12-10T02:39:10;75.40;;;23.90;;
36691;SDS011;22678;52.052;4.242;2022-12-10T02:41:39;65.53;;;24.13;;
36691;SDS011;22678;52.052;4.242;2022-12-10T02:44:10;77.03;;;24.92;;
36691;SDS011;22678;52.052;4.242;2022-12-10T02:46:38;97.50;;;24.87;;
36691;SDS011;22678;52.052;4.242;2022-12-10T02:49:06;81.27;;;25.33;;
36691;SDS011;22678;52.052;4.242;2022-12-10T02:51:33;91.40;;;28.13;;
36691;SDS011;22678;52.052;4.242;2022-12-10T02:54:03;97.03;;;25.87;;
36691;SDS011;22678;52.052;4.242;2022-12-10T02:56:32;77.27;;;24.80;;
36691;SDS011;22678;52.052;4.242;2022-12-10T03:07:28;106.43;;;27.43;;
36691;SDS011;22678;52.052;4.242;2022-12-10T03:10:05;76.37;;;21.53;;
36691;SDS011;22678;52.052;4.242;2022-12-10T03:12:37;102.07;;;26.33;;
36691;SDS011;22678;52.052;4.242;2022-12-10T03:15:07;96.37;;;25.47;;
36691;SDS011;22678;52.052;4.242;2022-12-10T03:17:35;85.73;;;25.00;;
36691;SDS011;22678;52.052;4.242;2022-12-10T03:20:06;82.10;;;23.70;;
36691;SDS011;22678;52.052;4.242;2022-12-10T03:22:33;88.37;;;24.27;;
36691;SDS011;22678;52.052;4.242;2022-12-10T03:25:03;106.30;;;25.47;;
36691;SDS011;22678;52.052;4.242;2022-12-10T03:27:29;92.63;;;26.13;;
36691;SDS011;22678;52.052;4.242;2022-12-10T03:29:55;123.40;;;29.73;;
36691;SDS011;22678;52.052;4.242;2022-12-10T03:32:24;76.10;;;23.03;;
36691;SDS011;22678;52.052;4.242;2022-12-10T03:34:51;138.63;;;30.50;;
36691;SDS011;22678;52.052;4.242;2022-12-10T03:37:21;144.73;;;33.63;;
36691;SDS011;22678;52.052;4.242;2022-12-10T03:39:47;102.43;;;27.03;;
36691;SDS011;22678;52.052;4.242;2022-12-10T03:42:13;109.80;;;28.70;;
36691;SDS011;22678;52.052;4.242;2022-12-10T03:44:39;90.63;;;24.57;;
36691;SDS011;22678;52.052;4.242;2022-12-10T03:47:08;91.53;;;25.17;;
36691;SDS011;22678;52.052;4.242;2022-12-10T03:49:37;86.60;;;27.57;;
36691;SDS011;22678;52.052;4.242;2022-12-10T03:52:02;99.30;;;27.03;;
36691;SDS011;22678;52.052;4.242;2022-12-10T03:54:28;83.33;;;24.47;;
36691;SDS011;22678;52.052;4.242;2022-12-10T03:56:53;79.90;;;23.77;;
36691;SDS011;22678;52.052;4.242;2022-12-10T03:59:19;63.53;;;24.93;;
36691;SDS011;22678;52.052;4.242;2022-12-10T04:01:44;62.23;;;21.33;;
36691;SDS011;22678;52.052;4.242;2022-12-10T04:04:10;87.17;;;25.03;;
36691;SDS011;22678;52.052;4.242;2022-12-10T04:06:37;84.03;;;24.47;;
36691;SDS011;22678;52.052;4.242;2022-12-10T04:09:03;71.77;;;23.03;;
36691;SDS011;22678;52.052;4.242;2022-12-10T04:11:28;69.47;;;23.27;;
36691;SDS011;22678;52.052;4.242;2022-12-10T04:13:53;91.60;;;26.47;;
36691;SDS011;22678;52.052;4.242;2022-12-10T04:16:37;86.13;;;23.30;;
36691;SDS011;22678;52.052;4.242;2022-12-10T04:19:04;86.47;;;24.07;;
36691;SDS011;22678;52.052;4.242;2022-12-10T04:21:35;100.57;;;26.53;;
36691;SDS011;22678;52.052;4.242;2022-12-10T04:24:21;102.63;;;24.60;;
36691;SDS011;22678;52.052;4.242;2022-12-10T04:27:28;78.43;;;24.43;;
36691;SDS011;22678;52.052;4.242;2022-12-10T04:29:54;78.87;;;21.73;;
36691;SDS011;22678;52.052;4.242;2022-12-10T04:32:21;105.00;;;27.83;;
36691;SDS011;22678;52.052;4.242;2022-12-10T04:34:48;96.30;;;24.63;;
36691;SDS011;22678;52.052;4.242;2022-12-10T04:37:13;80.63;;;22.60;;
36691;SDS011;22678;52.052;4.242;2022-12-10T04:39:39;82.60;;;22.80;;
36691;SDS011;22678;52.052;4.242;2022-12-10T04:42:05;102.23;;;24.23;;
36691;SDS011;22678;52.052;4.242;2022-12-10T04:44:32;98.57;;;23.53;;
36691;SDS011;22678;52.052;4.242;2022-12-10T04:46:58;86.90;;;23.50;;
36691;SDS011;22678;52.052;4.242;2022-12-10T04:49:23;81.77;;;22.37;;
36691;SDS011;22678;52.052;4.242;2022-12-10T04:51:49;76.60;;;21.33;;
36691;SDS011;22678;52.052;4.242;2022-12-10T04:54:15;74.17;;;19.20;;
36691;SDS011;22678;52.052;4.242;2022-12-10T04:56:40;87.93;;;23.60;;
36691;SDS011;22678;52.052;4.242;2022-12-10T04:59:06;87.97;;;22.33;;
36691;SDS011;22678;52.052;4.242;2022-12-10T05:01:32;113.10;;;21.47;;
36691;SDS011;22678;52.052;4.242;2022-12-10T05:04:01;96.17;;;22.30;;
36691;SDS011;22678;52.052;4.242;2022-12-10T05:06:28;52.83;;;15.53;;
36691;SDS011;22678;52.052;4.242;2022-12-10T05:08:54;60.97;;;19.80;;
36691;SDS011;22678;52.052;4.242;2022-12-10T05:11:21;63.00;;;19.37;;
36691;SDS011;22678;52.052;4.242;2022-12-10T05:13:47;84.00;;;21.10;;
36691;SDS011;22678;52.052;4.242;2022-12-10T05:16:14;48.07;;;19.07;;
36691;SDS011;22678;52.052;4.242;2022-12-10T05:18:41;80.97;;;19.87;;
36691;SDS011;22678;52.052;4.242;2022-12-10T05:21:09;81.57;;;19.33;;
36691;SDS011;22678;52.052;4.242;2022-12-10T05:23:38;113.77;;;20.67;;
36691;SDS011;22678;52.052;4.242;2022-12-10T05:28:31;88.13;;;17.60;;
36691;SDS011;22678;52.052;4.242;2022-12-10T05:30:59;63.13;;;15.93;;
36691;SDS011;22678;52.052;4.242;2022-12-10T05:33:25;75.67;;;18.43;;
36691;SDS011;22678;52.052;4.242;2022-12-10T05:38:19;64.23;;;20.33;;
36691;SDS011;22678;52.052;4.242;2022-12-10T05:40:44;69.03;;;17.80;;
36691;SDS011;22678;52.052;4.242;2022-12-10T05:43:10;49.00;;;15.70;;
36691;SDS011;22678;52.052;4.242;2022-12-10T05:45:36;62.10;;;16.60;;
36691;SDS011;22678;52.052;4.242;2022-12-10T05:48:01;53.10;;;16.40;;
36691;SDS011;22678;52.052;4.242;2022-12-10T05:50:26;71.57;;;17.13;;
36691;SDS011;22678;52.052;4.242;2022-12-10T05:52:52;88.60;;;19.30;;
36691;SDS011;22678;52.052;4.242;2022-12-10T05:55:17;48.67;;;14.23;;
36691;SDS011;22678;52.052;4.242;2022-12-10T05:57:42;58.67;;;15.73;;
36691;SDS011;22678;52.052;4.242;2022-12-10T06:00:08;64.70;;;14.73;;
36691;SDS011;22678;52.052;4.242;2022-12-10T06:02:34;60.43;;;16.47;;
36691;SDS011;22678;52.052;4.242;2022-12-10T06:04:59;80.50;;;17.10;;
36691;SDS011;22678;52.052;4.242;2022-12-10T06:07:25;67.93;;;17.53;;
36691;SDS011;22678;52.052;4.242;2022-12-10T06:09:50;51.43;;;16.27;;
36691;SDS011;22678;52.052;4.242;2022-12-10T06:12:16;82.50;;;19.27;;
36691;SDS011;22678;52.052;4.242;2022-12-10T06:14:41;74.20;;;16.30;;
36691;SDS011;22678;52.052;4.242;2022-12-10T06:17:07;47.77;;;15.07;;
36691;SDS011;22678;52.052;4.242;2022-12-10T06:19:32;64.60;;;17.07;;
36691;SDS011;22678;52.052;4.242;2022-12-10T06:21:59;59.07;;;18.20;;
36691;SDS011;22678;52.052;4.242;2022-12-10T06:24:24;78.47;;;18.27;;
36691;SDS011;22678;52.052;4.242;2022-12-10T06:26:50;36.00;;;13.10;;
36691;SDS011;22678;52.052;4.242;2022-12-10T06:29:16;47.20;;;15.90;;
36691;SDS011;22678;52.052;4.242;2022-12-10T06:31:41;93.07;;;15.87;;
36691;SDS011;22678;52.052;4.242;2022-12-10T06:34:07;60.43;;;14.60;;
36691;SDS011;22678;52.052;4.242;2022-12-10T06:36:32;43.83;;;13.00;;
36691;SDS011;22678;52.052;4.242;2022-12-10T06:38:57;50.87;;;13.53;;
36691;SDS011;22678;52.052;4.242;2022-12-10T06:41:23;63.63;;;16.37;;
36691;SDS011;22678;52.052;4.242;2022-12-10T06:43:48;59.30;;;16.73;;
36691;SDS011;22678;52.052;4.242;2022-12-10T06:46:14;55.03;;;17.30;;
36691;SDS011;22678;52.052;4.242;2022-12-10T06:48:42;45.37;;;16.17;;
36691;SDS011;22678;52.052;4.242;2022-12-10T06:51:08;35.00;;;15.47;;
36691;SDS011;22678;52.052;4.242;2022-12-10T06:53:35;38.47;;;15.20;;
36691;SDS011;22678;52.052;4.242;2022-12-10T06:56:02;53.13;;;15.23;;
36691;SDS011;22678;52.052;4.242;2022-12-10T06:58:28;42.23;;;14.13;;
36691;SDS011;22678;52.052;4.242;2022-12-10T07:01:01;47.97;;;16.60;;
36691;SDS011;22678;52.052;4.242;2022-12-10T07:03:30;56.77;;;17.73;;
36691;SDS011;22678;52.052;4.242;2022-12-10T07:05:57;38.67;;;16.97;;
36691;SDS011;22678;52.052;4.242;2022-12-10T07:08:23;47.60;;;18.97;;
36691;SDS011;22678;52.052;4.242;2022-12-10T07:10:49;46.70;;;17.27;;
36691;SDS011;22678;52.052;4.242;2022-12-10T07:13:14;48.50;;;17.13;;
36691;SDS011;22678;52.052;4.242;2022-12-10T07:15:39;40.00;;;15.50;;
36691;SDS011;22678;52.052;4.242;2022-12-10T07:18:04;51.90;;;15.77;;
36691;SDS011;22678;52.052;4.242;2022-12-10T07:20:30;61.73;;;16.80;;
36691;SDS011;22678;52.052;4.242;2022-12-10T07:22:55;57.97;;;16.80;;
36691;SDS011;22678;52.052;4.242;2022-12-10T07:25:20;47.77;;;17.03;;
36691;SDS011;22678;52.052;4.242;2022-12-10T07:27:46;43.70;;;14.27;;
36691;SDS011;22678;52.052;4.242;2022-12-10T07:30:11;39.17;;;16.93;;
36691;SDS011;22678;52.052;4.242;2022-12-10T07:32:36;46.03;;;15.10;;
36691;SDS011;22678;52.052;4.242;2022-12-10T07:35:02;40.77;;;17.50;;
36691;SDS011;22678;52.052;4.242;2022-12-10T07:37:27;38.63;;;15.10;;
36691;SDS011;22678;52.052;4.242;2022-12-10T07:39:53;54.43;;;16.10;;
36691;SDS011;22678;52.052;4.242;2022-12-10T07:42:18;31.57;;;14.97;;
36691;SDS011;22678;52.052;4.242;2022-12-10T07:44:43;52.33;;;18.63;;
36691;SDS011;22678;52.052;4.242;2022-12-10T07:47:09;41.87;;;16.40;;
36691;SDS011;22678;52.052;4.242;2022-12-10T07:49:34;37.43;;;12.47;;
36691;SDS011;22678;52.052;4.242;2022-12-10T07:51:59;42.60;;;15.53;;
36691;SDS011;22678;52.052;4.242;2022-12-10T07:54:25;47.27;;;14.83;;
36691;SDS011;22678;52.052;4.242;2022-12-10T07:56:50;44.10;;;18.13;;
36691;SDS011;22678;52.052;4.242;2022-12-10T07:59:16;66.20;;;16.97;;
36691;SDS011;22678;52.052;4.242;2022-12-10T08:01:41;48.40;;;14.73;;
36691;SDS011;22678;52.052;4.242;2022-12-10T08:04:07;57.80;;;17.40;;
36691;SDS011;22678;52.052;4.242;2022-12-10T08:06:32;51.27;;;16.50;;
36691;SDS011;22678;52.052;4.242;2022-12-10T08:08:58;54.13;;;16.97;;
36691;SDS011;22678;52.052;4.242;2022-12-10T08:11:24;54.10;;;15.00;;
36691;SDS011;22678;52.052;4.242;2022-12-10T08:13:51;52.97;;;16.87;;
36691;SDS011;22678;52.052;4.242;2022-12-10T08:16:18;51.27;;;16.17;;
36691;SDS011;22678;52.052;4.242;2022-12-10T08:18:45;39.57;;;17.40;;
36691;SDS011;22678;52.052;4.242;2022-12-10T08:21:21;34.93;;;14.63;;
36691;SDS011;22678;52.052;4.242;2022-12-10T08:23:48;36.83;;;14.77;;
36691;SDS011;22678;52.052;4.242;2022-12-10T08:26:17;51.13;;;17.10;;
36691;SDS011;22678;52.052;4.242;2022-12-10T08:28:44;47.53;;;16.67;;
36691;SDS011;22678;52.052;4.242;2022-12-10T08:31:11;37.00;;;15.90;;
36691;SDS011;22678;52.052;4.242;2022-12-10T08:33:38;41.43;;;15.33;;
36691;SDS011;22678;52.052;4.242;2022-12-10T08:36:05;44.13;;;16.07;;
36691;SDS011;22678;52.052;4.242;2022-12-10T08:38:33;44.37;;;17.43;;
36691;SDS011;22678;52.052;4.242;2022-12-10T08:41:04;35.07;;;13.87;;
36691;SDS011;22678;52.052;4.242;2022-12-10T08:43:31;43.13;;;19.00;;
36691;SDS011;22678;52.052;4.242;2022-12-10T08:45:57;39.17;;;17.97;;
36691;SDS011;22678;52.052;4.242;2022-12-10T08:48:23;42.37;;;19.20;;
36691;SDS011;22678;52.052;4.242;2022-12-10T08:50:48;46.90;;;15.40;;
36691;SDS011;22678;52.052;4.242;2022-12-10T08:53:14;38.50;;;16.40;;
36691;SDS011;22678;52.052;4.242;2022-12-10T08:55:39;30.93;;;12.67;;
36691;SDS011;22678;52.052;4.242;2022-12-10T08:58:05;39.43;;;16.57;;
36691;SDS011;22678;52.052;4.242;2022-12-10T09:00:30;34.50;;;16.53;;
36691;SDS011;22678;52.052;4.242;2022-12-10T09:02:55;46.30;;;16.40;;
36691;SDS011;22678;52.052;4.242;2022-12-10T09:05:20;40.93;;;16.70;;
36691;SDS011;22678;52.052;4.242;2022-12-10T09:07:46;37.57;;;14.33;;
36691;SDS011;22678;52.052;4.242;2022-12-10T09:10:11;58.20;;;20.20;;
36691;SDS011;22678;52.052;4.242;2022-12-10T09:12:37;47.63;;;15.47;;
36691;SDS011;22678;52.052;4.242;2022-12-10T09:15:03;41.83;;;16.67;;
36691;SDS011;22678;52.052;4.242;2022-12-10T09:17:29;49.47;;;17.00;;
36691;SDS011;22678;52.052;4.242;2022-12-10T09:19:55;40.30;;;14.30;;
36691;SDS011;22678;52.052;4.242;2022-12-10T09:22:20;44.93;;;16.60;;
36691;SDS011;22678;52.052;4.242;2022-12-10T09:24:45;53.67;;;16.90;;
36691;SDS011;22678;52.052;4.242;2022-12-10T09:27:10;39.90;;;15.47;;
36691;SDS011;22678;52.052;4.242;2022-12-10T09:29:36;43.47;;;16.43;;
36691;SDS011;22678;52.052;4.242;2022-12-10T09:32:01;54.07;;;16.70;;
36691;SDS011;22678;52.052;4.242;2022-12-10T09:34:26;57.43;;;17.00;;
36691;SDS011;22678;52.052;4.242;2022-12-10T09:36:52;39.17;;;15.03;;
36691;SDS011;22678;52.052;4.242;2022-12-10T09:39:17;32.83;;;14.23;;
36691;SDS011;22678;52.052;4.242;2022-12-10T09:41:47;63.40;;;21.13;;
36691;SDS011;22678;52.052;4.242;2022-12-10T09:44:27;39.00;;;15.37;;
36691;SDS011;22678;52.052;4.242;2022-12-10T09:47:00;41.97;;;15.13;;
36691;SDS011;22678;52.052;4.242;2022-12-10T09:52:23;46.50;;;14.13;;
36691;SDS011;22678;52.052;4.242;2022-12-10T09:54:53;38.20;;;16.87;;
36691;SDS011;22678;52.052;4.242;2022-12-10T09:57:24;51.30;;;16.57;;
36691;SDS011;22678;52.052;4.242;2022-12-10T09:59:53;50.00;;;21.63;;
36691;SDS011;22678;52.052;4.242;2022-12-10T10:04:50;37.13;;;17.43;;
36691;SDS011;22678;52.052;4.242;2022-12-10T10:07:18;42.53;;;17.37;;
36691;SDS011;22678;52.052;4.242;2022-12-10T10:09:50;52.33;;;16.10;;
36691;SDS011;22678;52.052;4.242;2022-12-10T10:12:18;51.37;;;15.63;;
36691;SDS011;22678;52.052;4.242;2022-12-10T10:14:43;41.10;;;17.03;;
36691;SDS011;22678;52.052;4.242;2022-12-10T10:17:11;41.73;;;14.70;;
36691;SDS011;22678;52.052;4.242;2022-12-10T10:19:44;39.30;;;15.20;;
36691;SDS011;22678;52.052;4.242;2022-12-10T10:22:10;53.83;;;18.87;;
36691;SDS011;22678;52.052;4.242;2022-12-10T10:24:43;42.33;;;17.77;;
36691;SDS011;22678;52.052;4.242;2022-12-10T10:27:22;45.30;;;16.70;;
36691;SDS011;22678;52.052;4.242;2022-12-10T10:29:52;45.03;;;16.97;;
36691;SDS011;22678;52.052;4.242;2022-12-10T10:32:25;41.80;;;17.10;;
36691;SDS011;22678;52.052;4.242;2022-12-10T10:34:55;48.10;;;18.13;;
36691;SDS011;22678;52.052;4.242;2022-12-10T10:37:27;45.50;;;16.73;;
36691;SDS011;22678;52.052;4.242;2022-12-10T10:39:53;47.07;;;20.00;;
36691;SDS011;22678;52.052;4.242;2022-12-10T10:42:23;48.23;;;19.83;;
36691;SDS011;22678;52.052;4.242;2022-12-10T10:47:28;56.53;;;20.13;;
36691;SDS011;22678;52.052;4.242;2022-12-10T10:49:56;49.57;;;20.90;;
36691;SDS011;22678;52.052;4.242;2022-12-10T10:52:23;56.90;;;21.80;;
36691;SDS011;22678;52.052;4.242;2022-12-10T10:54:55;44.47;;;13.52;;
36691;SDS011;22678;52.052;4.242;2022-12-10T10:57:25;57.33;;;21.90;;
36691;SDS011;22678;52.052;4.242;2022-12-10T11:00:00;51.77;;;21.90;;
36691;SDS011;22678;52.052;4.242;2022-12-10T11:02:52;62.37;;;23.13;;
36691;SDS011;22678;52.052;4.242;2022-12-10T11:10:29;64.87;;;20.67;;
36691;SDS011;22678;52.052;4.242;2022-12-10T11:15:35;77.43;;;27.60;;
36691;SDS011;22678;52.052;4.242;2022-12-10T11:18:22;80.63;;;25.30;;
36691;SDS011;22678;52.052;4.242;2022-12-10T11:21:07;66.47;;;23.90;;
36691;SDS011;22678;52.052;4.242;2022-12-10T11:23:37;65.20;;;22.50;;
36691;SDS011;22678;52.052;4.242;2022-12-10T11:26:17;66.55;;;24.13;;
36691;SDS011;22678;52.052;4.242;2022-12-10T11:48:03;61.23;;;25.30;;
36691;SDS011;22678;52.052;4.242;2022-12-10T11:50:47;52.27;;;22.70;;
36691;SDS011;22678;52.052;4.242;2022-12-10T11:56:23;57.13;;;20.27;;
36691;SDS011;22678;52.052;4.242;2022-12-10T12:07:40;56.70;;;20.67;;
36691;SDS011;22678;52.052;4.242;2022-12-10T12:13:20;54.95;;;20.90;;
36691;SDS011;22678;52.052;4.242;2022-12-10T12:15:53;57.50;;;23.17;;
36691;SDS011;22678;52.052;4.242;2022-12-10T12:18:38;49.28;;;20.30;;
36691;SDS011;22678;52.052;4.242;2022-12-10T12:21:12;51.90;;;21.90;;
36691;SDS011;22678;52.052;4.242;2022-12-10T12:26:37;65.63;;;25.27;;
36691;SDS011;22678;52.052;4.242;2022-12-10T12:31:56;70.33;;;23.37;;
36691;SDS011;22678;52.052;4.242;2022-12-10T12:34:26;70.87;;;25.47;;
36691;SDS011;22678;52.052;4.242;2022-12-10T12:37:02;73.07;;;27.17;;
36691;SDS011;22678;52.052;4.242;2022-12-10T12:47:56;69.17;;;26.83;;
36691;SDS011;22678;52.052;4.242;2022-12-10T12:49:53;64.03;;;23.73;;
36691;SDS011;22678;52.052;4.242;2022-12-10T12:54:59;63.57;;;20.00;;
36691;SDS011;22678;52.052;4.242;2022-12-10T12:57:34;64.00;;;23.73;;
36691;SDS011;22678;52.052;4.242;2022-12-10T13:00:10;61.00;;;24.37;;
36691;SDS011;22678;52.052;4.242;2022-12-10T13:02:58;62.07;;;25.33;;
36691;SDS011;22678;52.052;4.242;2022-12-10T13:05:31;70.83;;;23.37;;
36691;SDS011;22678;52.052;4.242;2022-12-10T13:10:44;51.90;;;23.47;;
36691;SDS011;22678;52.052;4.242;2022-12-10T13:13:30;74.80;;;26.50;;
36691;SDS011;22678;52.052;4.242;2022-12-10T13:27:04;55.87;;;22.10;;
36691;SDS011;22678;52.052;4.242;2022-12-10T13:42:55;51.67;;;20.67;;
36691;SDS011;22678;52.052;4.242;2022-12-10T13:45:41;52.13;;;20.97;;
36691;SDS011;22678;52.052;4.242;2022-12-10T13:51:18;42.43;;;20.43;;
36691;SDS011;22678;52.052;4.242;2022-12-10T13:54:01;44.97;;;20.20;;
36691;SDS011;22678;52.052;4.242;2022-12-10T13:59:29;54.53;;;21.53;;
36691;SDS011;22678;52.052;4.242;2022-12-10T14:07:32;57.37;;;21.67;;
36691;SDS011;22678;52.052;4.242;2022-12-10T14:09:59;51.70;;;21.57;;
36691;SDS011;22678;52.052;4.242;2022-12-10T14:12:30;55.23;;;23.10;;
36691;SDS011;22678;52.052;4.242;2022-12-10T14:15:00;61.83;;;23.47;;
36691;SDS011;22678;52.052;4.242;2022-12-10T14:17:33;47.60;;;21.70;;
36691;SDS011;22678;52.052;4.242;2022-12-10T14:20:03;60.90;;;21.73;;
36691;SDS011;22678;52.052;4.242;2022-12-10T14:22:38;41.87;;;18.77;;
36691;SDS011;22678;52.052;4.242;2022-12-10T14:25:15;47.43;;;21.50;;
36691;SDS011;22678;52.052;4.242;2022-12-10T14:27:43;56.87;;;22.07;;
36691;SDS011;22678;52.052;4.242;2022-12-10T14:30:18;52.67;;;20.20;;
36691;SDS011;22678;52.052;4.242;2022-12-10T14:32:45;51.13;;;21.17;;
36691;SDS011;22678;52.052;4.242;2022-12-10T14:35:17;52.63;;;19.53;;
36691;SDS011;22678;52.052;4.242;2022-12-10T14:37:57;50.67;;;20.43;;
36691;SDS011;22678;52.052;4.242;2022-12-10T14:42:52;51.27;;;19.93;;
36691;SDS011;22678;52.052;4.242;2022-12-10T14:47:52;39.03;;;15.47;;
36691;SDS011;22678;52.052;4.242;2022-12-10T14:50:18;45.90;;;18.80;;
36691;SDS011;22678;52.052;4.242;2022-12-10T14:52:45;49.83;;;19.90;;
36691;SDS011;22678;52.052;4.242;2022-12-10T14:55:17;37.03;;;18.97;;
36691;SDS011;22678;52.052;4.242;2022-12-10T14:58:27;40.17;;;18.23;;
36691;SDS011;22678;52.052;4.242;2022-12-10T15:01:16;36.90;;;16.13;;
36691;SDS011;22678;52.052;4.242;2022-12-10T15:03:53;40.37;;;17.67;;
36691;SDS011;22678;52.052;4.242;2022-12-10T15:06:19;44.60;;;19.00;;
36691;SDS011;22678;52.052;4.242;2022-12-10T15:08:45;35.93;;;18.70;;
36691;SDS011;22678;52.052;4.242;2022-12-10T15:11:19;44.17;;;19.80;;
36691;SDS011;22678;52.052;4.242;2022-12-10T15:13:46;39.57;;;19.47;;
36691;SDS011;22678;52.052;4.242;2022-12-10T15:16:19;38.87;;;18.27;;
36691;SDS011;22678;52.052;4.242;2022-12-10T15:18:54;51.73;;;21.17;;
36691;SDS011;22678;52.052;4.242;2022-12-10T15:21:22;37.27;;;18.53;;
36691;SDS011;22678;52.052;4.242;2022-12-10T15:23:49;46.90;;;20.03;;
36691;SDS011;22678;52.052;4.242;2022-12-10T15:26:32;49.90;;;20.00;;
36691;SDS011;22678;52.052;4.242;2022-12-10T15:31:57;48.93;;;19.13;;
36691;SDS011;22678;52.052;4.242;2022-12-10T15:34:28;45.13;;;19.93;;
36691;SDS011;22678;52.052;4.242;2022-12-10T15:36:55;37.30;;;20.47;;
36691;SDS011;22678;52.052;4.242;2022-12-10T15:46:59;36.43;;;17.10;;
36691;SDS011;22678;52.052;4.242;2022-12-10T15:49:46;46.17;;;20.37;;
36691;SDS011;22678;52.052;4.242;2022-12-10T15:52:13;45.33;;;19.37;;
36691;SDS011;22678;52.052;4.242;2022-12-10T15:54:40;45.50;;;16.60;;
36691;SDS011;22678;52.052;4.242;2022-12-10T15:59:55;38.80;;;16.87;;
36691;SDS011;22678;52.052;4.242;2022-12-10T16:05:12;43.63;;;19.02;;
36691;SDS011;22678;52.052;4.242;2022-12-10T16:07:39;35.80;;;17.20;;
36691;SDS011;22678;52.052;4.242;2022-12-10T16:10:05;36.10;;;16.80;;
36691;SDS011;22678;52.052;4.242;2022-12-10T16:12:31;34.43;;;16.30;;
36691;SDS011;22678;52.052;4.242;2022-12-10T16:14:59;43.87;;;16.33;;
36691;SDS011;22678;52.052;4.242;2022-12-10T16:17:28;32.17;;;15.87;;
36691;SDS011;22678;52.052;4.242;2022-12-10T16:20:15;32.23;;;15.27;;
36691;SDS011;22678;52.052;4.242;2022-12-10T16:22:44;37.07;;;14.97;;
36691;SDS011;22678;52.052;4.242;2022-12-10T16:25:10;38.67;;;15.07;;
36691;SDS011;22678;52.052;4.242;2022-12-10T16:27:36;32.17;;;13.73;;
36691;SDS011;22678;52.052;4.242;2022-12-10T16:30:14;35.40;;;15.90;;
36691;SDS011;22678;52.052;4.242;2022-12-10T16:32:42;30.33;;;13.07;;
36691;SDS011;22678;52.052;4.242;2022-12-10T16:35:08;37.33;;;13.47;;
36691;SDS011;22678;52.052;4.242;2022-12-10T16:37:33;30.90;;;12.67;;
36691;SDS011;22678;52.052;4.242;2022-12-10T16:39:58;30.53;;;13.33;;
36691;SDS011;22678;52.052;4.242;2022-12-10T16:42:24;32.57;;;13.13;;
36691;SDS011;22678;52.052;4.242;2022-12-10T16:44:50;25.80;;;12.57;;
36691;SDS011;22678;52.052;4.242;2022-12-10T16:47:15;26.07;;;12.20;;
36691;SDS011;22678;52.052;4.242;2022-12-10T16:49:40;24.80;;;9.43;;
36691;SDS011;22678;52.052;4.242;2022-12-10T16:52:06;19.30;;;9.40;;
36691;SDS011;22678;52.052;4.242;2022-12-10T16:54:31;25.53;;;9.40;;
36691;SDS011;22678;52.052;4.242;2022-12-10T16:56:56;25.67;;;11.10;;
36691;SDS011;22678;52.052;4.242;2022-12-10T16:59:22;19.70;;;8.40;;
36691;SDS011;22678;52.052;4.242;2022-12-10T17:01:47;26.20;;;10.07;;